Time;durP1;ratioP1;P1;durP2;ratioP2;P2;SDS_P1;SDS_P2;PMS_P1;PMS_P2;Temp;Humidity;BMP_temperature;BMP_pressure;BME280_temperature;BME280_humidity;BME280_pressure;Samples;Min_cycle;Max_cycle;Signal;HPM_P1;HPM_P2
2022/08/20 00:00:25;;;;;;;8.00;5.10;;;20.90;99.90;;;;;;5066268;28;20055;-75
2022/08/20 00:02:55;;;;;;;7.28;4.80;;;20.90;99.90;;;;;;5060903;28;20039;-76
2022/08/20 00:05:29;;;;;;;10.02;4.70;;;20.90;99.90;;;;;;5066243;28;20660;-76
2022/08/20 00:07:54;;;;;;;7.78;4.68;;;20.90;99.90;;;;;;5066507;28;20023;-75
2022/08/20 00:10:21;;;;;;;8.93;5.25;;;21.00;99.90;;;;;;5070357;28;20106;-76
2022/08/20 00:12:48;;;;;;;6.70;4.35;;;20.90;99.90;;;;;;5066285;28;20108;-76
2022/08/20 00:15:20;;;;;;;8.43;5.75;;;20.90;99.90;;;;;;5069642;28;20085;-76
2022/08/20 00:17:50;;;;;;;8.98;5.18;;;20.90;99.90;;;;;;5067284;28;20039;-76
2022/08/20 00:20:17;;;;;;;8.30;4.80;;;20.90;99.90;;;;;;5060147;28;20526;-76
2022/08/20 00:22:42;;;;;;;10.00;5.05;;;20.90;99.90;;;;;;5064489;28;20518;-76
2022/08/20 00:25:10;;;;;;;7.80;5.28;;;20.80;99.90;;;;;;5069985;28;20025;-76
2022/08/20 00:27:36;;;;;;;9.82;4.78;;;20.90;99.90;;;;;;5066472;28;20020;-76
2022/08/20 00:30:05;;;;;;;8.95;4.95;;;20.90;99.90;;;;;;5068638;28;20024;-76
2022/08/20 00:32:31;;;;;;;8.02;5.07;;;20.90;99.90;;;;;;5067913;28;20033;-76
2022/08/20 00:34:57;;;;;;;7.03;4.20;;;20.90;99.90;;;;;;5069864;28;20438;-76
2022/08/20 00:37:22;;;;;;;7.03;5.03;;;20.80;99.90;;;;;;5065643;28;20032;-75
2022/08/20 00:39:47;;;;;;;10.65;4.90;;;20.90;99.90;;;;;;5068708;28;20696;-75
2022/08/20 00:42:13;;;;;;;7.07;4.63;;;21.00;99.90;;;;;;5067927;28;20028;-76
2022/08/20 00:44:45;;;;;;;8.52;4.85;;;20.90;99.90;;;;;;5068924;28;20028;-76
2022/08/20 00:47:10;;;;;;;8.07;4.50;;;20.90;99.90;;;;;;5062173;28;20123;-76
2022/08/20 00:49:36;;;;;;;8.85;4.40;;;20.80;99.90;;;;;;5068045;28;20020;-75
2022/08/20 00:52:10;;;;;;;6.55;4.55;;;20.90;99.90;;;;;;5067720;28;20025;-75
2022/08/20 00:54:53;;;;;;;8.85;5.15;;;20.80;99.90;;;;;;5066628;28;20056;-75
2022/08/20 00:57:28;;;;;;;8.80;4.65;;;20.70;99.90;;;;;;5065784;28;20098;-75
2022/08/20 00:59:56;;;;;;;10.10;5.47;;;20.70;99.90;;;;;;5067302;28;20032;-75
2022/08/20 01:02:24;;;;;;;7.82;4.88;;;20.80;99.90;;;;;;5067211;28;20036;-76
2022/08/20 01:04:53;;;;;;;7.40;4.80;;;20.80;99.90;;;;;;5063467;28;20068;-76
2022/08/20 01:07:19;;;;;;;8.85;4.95;;;20.80;99.90;;;;;;5064100;28;20053;-75
2022/08/20 01:09:46;;;;;;;8.15;3.95;;;20.80;99.90;;;;;;5065459;28;20025;-76
2022/08/20 01:12:14;;;;;;;9.15;5.20;;;20.90;99.90;;;;;;5066400;28;20052;-74
2022/08/20 01:14:43;;;;;;;6.32;4.00;;;20.80;99.90;;;;;;5067706;28;20078;-76
2022/08/20 01:17:16;;;;;;;5.63;3.70;;;20.80;99.90;;;;;;5066182;28;20067;-76
2022/08/20 01:19:54;;;;;;;9.75;4.50;;;20.80;99.90;;;;;;5066289;28;20078;-76
2022/08/20 01:26:04;;;;;;;6.00;3.50;;;20.80;99.90;;;;;;5064332;28;20039;-76
2022/08/20 01:28:51;;;;;;;8.15;5.05;;;20.90;99.90;;;;;;5067041;28;20111;-75
2022/08/20 01:31:20;;;;;;;8.02;4.30;;;20.80;99.90;;;;;;5065103;28;20028;-75
2022/08/20 01:33:46;;;;;;;5.80;3.65;;;20.80;99.90;;;;;;5064884;28;20487;-75
2022/08/20 01:36:13;;;;;;;7.07;4.35;;;20.80;99.90;;;;;;5068148;28;20566;-76
2022/08/20 01:38:40;;;;;;;7.40;4.30;;;20.70;99.90;;;;;;5068218;28;20033;-76
2022/08/20 01:41:22;;;;;;;6.53;3.60;;;20.70;99.90;;;;;;5059697;28;20029;-76
2022/08/20 01:43:55;;;;;;;6.85;4.10;;;20.70;99.90;;;;;;5061533;28;20070;-76
2022/08/20 01:46:23;;;;;;;7.32;4.03;;;20.70;99.90;;;;;;5064438;28;20028;-76
2022/08/20 01:48:48;;;;;;;7.38;4.45;;;20.70;99.90;;;;;;5065642;28;20032;-75
2022/08/20 01:51:19;;;;;;;5.60;3.78;;;20.70;99.90;;;;;;5060326;28;20021;-75
2022/08/20 01:53:49;;;;;;;7.15;4.15;;;20.70;99.90;;;;;;5063250;28;20025;-75
2022/08/20 01:56:19;;;;;;;6.10;3.60;;;20.60;99.90;;;;;;5060353;28;20040;-75
2022/08/20 01:58:49;;;;;;;6.43;3.97;;;20.50;99.90;;;;;;5066116;28;20032;-75
2022/08/20 02:01:21;;;;;;;8.35;3.88;;;20.40;99.90;;;;;;5067163;28;20028;-75
2022/08/20 02:03:47;;;;;;;4.68;3.58;;;20.50;99.90;;;;;;5063910;28;20133;-76
2022/08/20 02:06:12;;;;;;;5.80;3.28;;;20.50;99.90;;;;;;5065979;28;20061;-75
2022/08/20 02:08:38;;;;;;;5.00;3.55;;;20.50;99.90;;;;;;5064803;28;20071;-75
2022/08/20 02:11:03;;;;;;;7.00;3.45;;;20.40;99.90;;;;;;5063225;28;20021;-74
2022/08/20 02:13:29;;;;;;;6.40;3.50;;;20.30;99.90;;;;;;5061599;28;20063;-75
2022/08/20 02:15:54;;;;;;;5.10;2.85;;;20.30;99.90;;;;;;5066505;28;20028;-74
2022/08/20 02:18:20;;;;;;;3.83;2.95;;;20.20;99.90;;;;;;5065365;28;20517;-75
2022/08/20 02:20:47;;;;;;;7.60;3.45;;;20.20;99.90;;;;;;5063643;28;20025;-74
2022/08/20 02:23:14;;;;;;;6.88;3.95;;;20.20;99.90;;;;;;5062825;28;20038;-75
2022/08/20 02:25:42;;;;;;;4.68;3.63;;;20.10;99.90;;;;;;5063089;28;20030;-76
2022/08/20 02:28:10;;;;;;;4.78;3.17;;;20.10;99.90;;;;;;5059833;28;20138;-75
2022/08/20 02:30:40;;;;;;;5.78;3.28;;;20.10;99.90;;;;;;5064138;28;20111;-75
2022/08/20 02:33:09;;;;;;;4.65;3.28;;;20.10;99.90;;;;;;5062202;28;20497;-76
2022/08/20 02:35:35;;;;;;;5.30;3.45;;;20.10;99.90;;;;;;5070603;28;20535;-76
2022/08/20 02:38:01;;;;;;;5.45;3.50;;;20.10;99.90;;;;;;5064397;28;20033;-76
2022/08/20 02:40:28;;;;;;;5.95;3.85;;;20.20;99.90;;;;;;5064010;28;20115;-76
2022/08/20 02:42:54;;;;;;;7.32;4.00;;;20.10;99.90;;;;;;5063695;28;20029;-76
2022/08/20 02:45:21;;;;;;;5.38;3.50;;;20.10;99.90;;;;;;5068561;28;20161;-76
2022/08/20 02:47:48;;;;;;;7.22;4.07;;;20.20;99.90;;;;;;5061872;28;20055;-76
2022/08/20 02:50:16;;;;;;;5.65;3.85;;;20.20;99.90;;;;;;5059671;28;20108;-76
2022/08/20 02:52:43;;;;;;;7.00;3.88;;;20.30;99.90;;;;;;5063484;28;20052;-76
2022/08/20 02:55:10;;;;;;;6.15;3.80;;;20.30;99.90;;;;;;5062936;28;20028;-76
2022/08/20 02:57:36;;;;;;;6.25;4.20;;;20.30;99.90;;;;;;5066449;28;20025;-76
2022/08/20 03:00:05;;;;;;;5.35;3.83;;;20.30;99.90;;;;;;5065259;28;20062;-76
2022/08/20 03:02:31;;;;;;;4.15;3.33;;;20.30;99.90;;;;;;5059642;28;20040;-76
2022/08/20 03:04:56;;;;;;;8.00;4.07;;;20.40;99.90;;;;;;5065075;28;20032;-76
2022/08/20 03:07:22;;;;;;;6.43;3.20;;;20.30;99.90;;;;;;5066204;28;20045;-76
2022/08/20 03:09:47;;;;;;;7.30;4.43;;;20.30;99.90;;;;;;5063356;28;20419;-76
2022/08/20 03:12:13;;;;;;;7.70;4.47;;;20.40;99.90;;;;;;5062784;28;20019;-75
2022/08/20 03:14:38;;;;;;;5.18;3.50;;;20.40;99.90;;;;;;5061022;28;20532;-77
2022/08/20 03:17:04;;;;;;;8.40;4.22;;;20.40;99.90;;;;;;5061437;28;20033;-77
2022/08/20 03:19:29;;;;;;;6.72;4.13;;;20.30;99.90;;;;;;5066785;28;20066;-76
2022/08/20 03:21:55;;;;;;;6.70;4.18;;;20.30;99.90;;;;;;5061691;28;20075;-76
2022/08/20 03:24:20;;;;;;;6.60;4.05;;;20.30;99.90;;;;;;5064239;28;20032;-76
2022/08/20 03:26:46;;;;;;;7.35;4.47;;;20.30;99.90;;;;;;5063171;28;20035;-75
2022/08/20 03:29:12;;;;;;;8.18;4.38;;;20.20;99.90;;;;;;5062358;28;20029;-76
2022/08/20 03:31:38;;;;;;;8.73;5.07;;;20.20;99.90;;;;;;5063506;28;20025;-76
2022/08/20 03:34:03;;;;;;;8.18;4.88;;;20.20;99.90;;;;;;5064938;28;20593;-76
2022/08/20 03:36:50;;;;;;;11.13;6.05;;;20.20;99.90;;;;;;5066546;28;20159;-75
2022/08/20 03:39:15;;;;;;;9.50;5.07;;;20.20;99.90;;;;;;5062978;28;20056;-76
2022/08/20 03:41:41;;;;;;;7.38;4.40;;;20.30;99.90;;;;;;5065139;28;20064;-77
2022/08/20 03:44:06;;;;;;;8.80;5.28;;;20.30;99.90;;;;;;5061058;28;20016;-76
2022/08/20 03:46:33;;;;;;;11.45;4.65;;;20.30;99.90;;;;;;5066288;28;20021;-77
2022/08/20 03:48:58;;;;;;;8.90;4.70;;;20.20;99.90;;;;;;5066055;28;20028;-75
2022/08/20 03:51:24;;;;;;;7.93;4.95;;;20.30;99.90;;;;;;5062981;28;20126;-76
2022/08/20 03:53:49;;;;;;;10.43;5.38;;;20.20;99.90;;;;;;5061968;28;20045;-76
2022/08/20 03:56:16;;;;;;;9.20;5.20;;;20.20;99.90;;;;;;5065155;28;20464;-76
2022/08/20 03:58:41;;;;;;;7.70;4.70;;;20.20;99.90;;;;;;5063520;28;20033;-76
2022/08/20 04:01:07;;;;;;;8.60;4.63;;;20.20;99.90;;;;;;5062731;28;20028;-76
2022/08/20 04:03:33;;;;;;;8.77;5.38;;;20.20;99.90;;;;;;5064362;28;20021;-76
2022/08/20 04:05:59;;;;;;;10.23;5.70;;;20.20;99.90;;;;;;5063088;28;20534;-76
2022/08/20 04:08:26;;;;;;;8.07;5.00;;;20.20;99.90;;;;;;5064255;28;20048;-76
2022/08/20 04:10:53;;;;;;;10.65;5.47;;;20.30;99.90;;;;;;5068460;28;20719;-76
2022/08/20 04:13:20;;;;;;;9.02;4.80;;;20.30;99.90;;;;;;5069704;28;20031;-76
2022/08/20 04:15:47;;;;;;;8.68;4.88;;;20.40;99.90;;;;;;5068224;28;20105;-76
2022/08/20 04:18:14;;;;;;;7.60;5.13;;;20.30;99.90;;;;;;5067311;28;20110;-75
2022/08/20 04:20:41;;;;;;;6.80;4.82;;;20.20;99.90;;;;;;5066300;28;20056;-75
2022/08/20 04:23:08;;;;;;;8.73;5.38;;;20.20;99.90;;;;;;5066954;28;20035;-76
2022/08/20 04:25:35;;;;;;;7.10;4.72;;;20.20;99.90;;;;;;5068951;28;20099;-76
2022/08/20 04:28:04;;;;;;;10.93;5.20;;;20.30;99.90;;;;;;5068732;28;20027;-75
2022/08/20 04:30:31;;;;;;;9.75;4.88;;;20.20;99.90;;;;;;5067662;28;20032;-76
2022/08/20 04:32:58;;;;;;;9.60;5.00;;;20.20;99.90;;;;;;5066686;28;20032;-76
2022/08/20 04:35:23;;;;;;;11.80;5.47;;;20.30;99.90;;;;;;5068107;28;20230;-76
2022/08/20 04:38:06;;;;;;;10.32;5.60;;;20.30;99.90;;;;;;5067510;28;20557;-76
2022/08/20 04:43:18;;;;;;;8.80;5.25;;;20.30;99.90;;;;;;5066853;28;20082;-76
2022/08/20 04:45:44;;;;;;;12.98;5.38;;;20.30;99.90;;;;;;5066495;28;20028;-76
2022/08/20 04:48:10;;;;;;;8.60;5.15;;;20.30;99.90;;;;;;5066891;28;20051;-76
2022/08/20 04:50:37;;;;;;;7.18;4.80;;;20.30;99.90;;;;;;5067284;28;20056;-76
2022/08/20 04:53:05;;;;;;;7.63;4.55;;;20.30;99.90;;;;;;5065205;28;20027;-76
2022/08/20 04:55:33;;;;;;;10.68;5.57;;;20.30;99.90;;;;;;5065636;28;20144;-76
2022/08/20 04:58:07;;;;;;;9.50;5.43;;;20.30;99.90;;;;;;5065556;28;20082;-76
2022/08/20 05:00:32;;;;;;;13.93;6.03;;;20.30;99.90;;;;;;5067980;28;20064;-76
2022/08/20 05:02:58;;;;;;;9.75;5.32;;;20.20;99.90;;;;;;5065954;28;20123;-76
2022/08/20 05:05:25;;;;;;;10.95;5.57;;;20.30;99.90;;;;;;5065118;28;20036;-77
2022/08/20 05:07:51;;;;;;;7.35;4.72;;;20.30;99.90;;;;;;5064313;28;20480;-75
2022/08/20 05:10:18;;;;;;;11.52;5.05;;;20.30;99.90;;;;;;5068293;28;20126;-75
2022/08/20 05:12:44;;;;;;;8.45;4.97;;;20.40;99.90;;;;;;5063304;28;20036;-74
2022/08/20 05:15:11;;;;;;;12.18;5.72;;;20.40;99.90;;;;;;5059604;28;20043;-75
2022/08/20 05:17:41;;;;;;;11.80;5.80;;;20.40;99.90;;;;;;5062136;28;20024;-75
2022/08/20 05:20:10;;;;;;;10.15;5.30;;;20.30;99.90;;;;;;5064520;28;20071;-75
2022/08/20 05:22:36;;;;;;;10.75;5.57;;;20.30;99.90;;;;;;5061758;28;20029;-75
2022/08/20 05:25:02;;;;;;;10.07;5.28;;;20.30;99.90;;;;;;5065341;28;20774;-75
2022/08/20 05:27:28;;;;;;;8.95;5.60;;;20.30;99.90;;;;;;5064980;28;20162;-75
2022/08/20 05:29:59;;;;;;;10.57;6.00;;;20.20;99.90;;;;;;5069147;28;20033;-75
2022/08/20 05:32:25;;;;;;;8.23;5.28;;;20.20;99.90;;;;;;5066309;28;20399;-76
2022/08/20 05:34:50;;;;;;;9.70;5.43;;;20.30;99.90;;;;;;5065059;28;20037;-76
2022/08/20 05:37:16;;;;;;;9.07;5.13;;;20.20;99.90;;;;;;5064048;28;20024;-76
2022/08/20 05:39:43;;;;;;;10.68;5.57;;;20.30;99.90;;;;;;5066750;28;20506;-76
2022/08/20 05:42:08;;;;;;;9.98;5.65;;;20.30;99.90;;;;;;5064981;28;20036;-76
2022/08/20 05:44:36;;;;;;;11.82;6.07;;;20.40;99.90;;;;;;5068217;28;20020;-76
2022/08/20 05:47:03;;;;;;;11.68;5.35;;;20.40;99.90;;;;;;5064257;28;20040;-76
2022/08/20 05:49:28;;;;;;;7.30;4.57;;;20.40;99.90;;;;;;5067582;28;20033;-76
2022/08/20 05:51:54;;;;;;;9.50;5.63;;;20.40;99.90;;;;;;5062196;28;20163;-76
2022/08/20 05:54:22;;;;;;;9.88;5.88;;;20.40;99.90;;;;;;5062550;28;20548;-76
2022/08/20 05:56:48;;;;;;;8.18;5.35;;;20.40;99.90;;;;;;5064396;28;20028;-76
2022/08/20 05:59:14;;;;;;;12.07;5.88;;;20.50;99.90;;;;;;5067905;28;20048;-76
2022/08/20 06:01:41;;;;;;;11.27;6.30;;;20.60;99.90;;;;;;5061100;28;20515;-76
2022/08/20 06:04:23;;;;;;;11.52;5.35;;;20.60;99.90;;;;;;5066061;28;20016;-76
2022/08/20 06:06:56;;;;;;;10.23;5.13;;;20.50;99.90;;;;;;5067250;28;20419;-76
2022/08/20 06:09:23;;;;;;;10.63;6.28;;;20.50;99.90;;;;;;5062773;28;20029;-76
2022/08/20 06:11:49;;;;;;;7.75;5.18;;;20.50;99.90;;;;;;5064477;28;20021;-76
2022/08/20 06:14:19;;;;;;;12.43;5.85;;;20.60;99.90;;;;;;5066400;28;20028;-75
2022/08/20 06:16:45;;;;;;;9.82;5.75;;;20.60;99.90;;;;;;5057574;28;20074;-76
2022/08/20 06:19:11;;;;;;;8.95;5.35;;;20.60;99.90;;;;;;5068140;28;20059;-75
2022/08/20 06:21:36;;;;;;;10.63;6.13;;;20.60;99.90;;;;;;5066793;28;20020;-76
2022/08/20 06:24:02;;;;;;;10.88;6.20;;;20.60;99.90;;;;;;5066291;28;20391;-76
2022/08/20 06:26:28;;;;;;;16.10;6.03;;;20.50;99.90;;;;;;5062217;28;20035;-76
2022/08/20 06:28:54;;;;;;;9.85;5.93;;;20.60;99.90;;;;;;5065646;28;20029;-76
2022/08/20 06:31:20;;;;;;;7.97;5.18;;;20.70;99.90;;;;;;5063026;28;20401;-76
2022/08/20 06:33:46;;;;;;;9.80;6.00;;;20.80;99.90;;;;;;5064036;28;20078;-77
2022/08/20 06:36:11;;;;;;;15.13;6.80;;;20.90;99.90;;;;;;5061654;28;20056;-77
2022/08/20 06:38:37;;;;;;;12.50;5.78;;;20.80;99.90;;;;;;5064077;28;20047;-77
2022/08/20 06:41:02;;;;;;;10.35;5.90;;;20.80;99.90;;;;;;5066707;28;20040;-77
2022/08/20 06:43:28;;;;;;;9.48;5.43;;;20.90;99.90;;;;;;5064899;28;20024;-77
2022/08/20 06:45:56;;;;;;;12.38;5.85;;;21.00;99.90;;;;;;5067838;28;20021;-77
2022/08/20 06:48:22;;;;;;;8.93;5.93;;;21.00;99.90;;;;;;5063311;28;20439;-78
2022/08/20 06:50:48;;;;;;;10.88;5.80;;;20.90;99.90;;;;;;5061876;28;20154;-77
2022/08/20 06:53:16;;;;;;;8.88;5.68;;;21.00;99.90;;;;;;5062505;28;20028;-77
2022/08/20 06:55:45;;;;;;;10.70;6.03;;;20.90;99.90;;;;;;5065389;28;20163;-77
2022/08/20 06:58:12;;;;;;;12.80;5.68;;;20.90;99.90;;;;;;5066135;28;20498;-77
2022/08/20 07:00:41;;;;;;;9.27;5.68;;;20.80;99.90;;;;;;5062732;28;20598;-77
2022/08/20 07:03:06;;;;;;;12.13;5.82;;;20.70;99.90;;;;;;5064782;28;20021;-77
2022/08/20 07:05:35;;;;;;;8.43;5.78;;;20.70;99.90;;;;;;5065084;28;20158;-77
2022/08/20 07:08:02;;;;;;;9.40;5.90;;;20.80;99.90;;;;;;5064953;28;20036;-77
2022/08/20 07:10:29;;;;;;;11.27;5.95;;;20.70;99.90;;;;;;5061940;28;20021;-77
2022/08/20 07:12:54;;;;;;;10.35;6.05;;;20.70;99.90;;;;;;5069484;28;20619;-77
2022/08/20 07:15:22;;;;;;;9.05;6.40;;;20.70;99.90;;;;;;5063516;28;20035;-77
2022/08/20 07:17:56;;;;;;;15.00;6.28;;;20.80;99.90;;;;;;5067690;28;20035;-77
2022/08/20 07:20:22;;;;;;;17.17;6.82;;;20.70;99.90;;;;;;5061336;28;20036;-77
2022/08/20 07:22:47;;;;;;;11.93;6.82;;;20.70;99.90;;;;;;5061852;28;20047;-77
2022/08/20 07:25:15;;;;;;;12.68;6.35;;;20.60;99.90;;;;;;5064337;28;20090;-78
2022/08/20 07:27:42;;;;;;;9.70;6.38;;;20.70;99.90;;;;;;5066493;28;20479;-78
2022/08/20 07:32:56;;;;;;;13.25;6.90;;;20.80;99.90;;;;;;5064527;28;20117;-77
2022/08/20 07:35:22;;;;;;;18.52;6.57;;;20.80;99.90;;;;;;5061887;28;20060;-78
2022/08/20 07:37:50;;;;;;;13.90;5.85;;;20.90;99.90;;;;;;5063355;28;20028;-77
2022/08/20 07:40:20;;;;;;;11.32;6.53;;;20.90;99.90;;;;;;5066413;28;20551;-76
2022/08/20 07:42:46;;;;;;;11.60;6.43;;;20.90;99.90;;;;;;5065260;28;20029;-77
2022/08/20 07:45:14;;;;;;;11.45;6.60;;;20.90;99.90;;;;;;5068391;28;20112;-77
2022/08/20 07:47:41;;;;;;;10.85;6.43;;;20.80;99.90;;;;;;5063923;28;20035;-76
2022/08/20 07:50:09;;;;;;;14.13;6.75;;;20.80;99.90;;;;;;5059843;28;20067;-77
2022/08/20 07:52:34;;;;;;;10.75;6.35;;;20.80;99.90;;;;;;5068266;28;20028;-79
2022/08/20 07:55:09;;;;;;;13.27;6.28;;;20.90;99.90;;;;;;5065657;28;20662;-80
2022/08/20 07:57:36;;;;;;;12.90;6.78;;;20.90;99.90;;;;;;5065993;28;20035;-79
2022/08/20 08:00:04;;;;;;;11.65;5.90;;;20.90;99.90;;;;;;5066408;28;20094;-80
2022/08/20 08:02:30;;;;;;;12.57;6.45;;;21.00;99.90;;;;;;5065851;28;20032;-80
2022/08/20 08:04:55;;;;;;;14.88;7.85;;;20.90;99.90;;;;;;5070453;28;20119;-79
2022/08/20 08:07:22;;;;;;;13.48;6.88;;;20.90;99.90;;;;;;5062696;28;20041;-80
2022/08/20 08:09:49;;;;;;;12.63;6.82;;;21.00;99.90;;;;;;5068221;28;20021;-79
2022/08/20 08:12:16;;;;;;;12.60;7.05;;;21.00;99.90;;;;;;5069106;28;20129;-80
2022/08/20 08:14:44;;;;;;;11.55;6.03;;;21.00;99.90;;;;;;5068702;28;20638;-79
2022/08/20 08:17:11;;;;;;;12.13;6.75;;;21.10;99.90;;;;;;5070892;28;20028;-80
2022/08/20 08:19:47;;;;;;;14.23;7.38;;;21.20;99.90;;;;;;5069442;28;20033;-81
2022/08/20 08:22:15;;;;;;;15.13;6.97;;;21.40;99.90;;;;;;5068289;28;20036;-79
2022/08/20 08:24:42;;;;;;;11.98;6.53;;;21.40;99.90;;;;;;5068619;28;20036;-80
2022/08/20 08:27:08;;;;;;;15.77;7.38;;;21.60;99.90;;;;;;5070264;28;20017;-80
2022/08/20 08:29:35;;;;;;;13.20;7.72;;;21.80;99.90;;;;;;5068462;28;20117;-80
2022/08/20 08:32:02;;;;;;;14.52;7.60;;;21.80;99.90;;;;;;5067974;28;20487;-80
2022/08/20 08:34:30;;;;;;;13.25;7.30;;;21.70;99.90;;;;;;5069629;28;20380;-80
2022/08/20 08:36:57;;;;;;;11.25;6.75;;;21.80;99.90;;;;;;5070843;28;20028;-81
2022/08/20 08:39:23;;;;;;;15.82;7.13;;;21.70;99.90;;;;;;5067945;28;20021;-81
2022/08/20 08:41:50;;;;;;;16.05;6.95;;;21.70;99.90;;;;;;5069392;28;20029;-80
2022/08/20 08:44:26;;;;;;;11.40;7.10;;;21.70;99.90;;;;;;5067910;28;20044;-80
2022/08/20 08:46:57;;;;;;;19.05;8.02;;;21.70;99.90;;;;;;5067349;28;20024;-80
2022/08/20 08:49:28;;;;;;;11.63;6.25;;;21.60;99.90;;;;;;5068728;28;20031;-80
2022/08/20 08:52:03;;;;;;;15.02;8.23;;;21.50;99.90;;;;;;5070770;28;20502;-80
2022/08/20 08:54:30;;;;;;;12.50;6.47;;;21.50;99.90;;;;;;5067317;28;20679;-80
2022/08/20 08:56:57;;;;;;;12.48;6.68;;;21.60;99.90;;;;;;5067428;28;20476;-80
2022/08/20 08:59:27;;;;;;;13.10;7.75;;;21.60;99.90;;;;;;5070210;28;20040;-79
2022/08/20 09:01:54;;;;;;;15.50;7.72;;;21.70;99.90;;;;;;5069435;28;20064;-80
2022/08/20 09:04:20;;;;;;;8.05;5.30;;;21.90;99.90;;;;;;5068054;28;20039;-80
2022/08/20 09:06:46;;;;;;;9.07;6.00;;;22.10;99.90;;;;;;5065143;28;20044;-80
2022/08/20 09:09:28;;;;;;;13.77;7.40;;;22.10;99.90;;;;;;5068682;28;20024;-81
2022/08/20 09:12:01;;;;;;;15.63;8.07;;;22.20;99.90;;;;;;5070083;28;20133;-79
2022/08/20 09:14:27;;;;;;;11.52;6.95;;;22.20;99.90;;;;;;5069534;28;20391;-79
2022/08/20 09:16:52;;;;;;;11.60;7.45;;;22.30;99.90;;;;;;5066046;28;20032;-79
2022/08/20 09:19:18;;;;;;;14.07;7.30;;;22.40;99.90;;;;;;5069496;28;20031;-79
2022/08/20 09:21:43;;;;;;;14.80;7.80;;;22.30;99.90;;;;;;5069387;28;20040;-80
2022/08/20 09:24:09;;;;;;;13.73;8.40;;;22.20;99.90;;;;;;5068601;28;20025;-82
2022/08/20 09:26:34;;;;;;;14.05;7.22;;;22.10;99.90;;;;;;5064378;28;20020;-79
2022/08/20 09:29:00;;;;;;;16.40;7.80;;;22.00;99.90;;;;;;5068357;28;20107;-79
2022/08/20 09:31:26;;;;;;;14.65;6.43;;;22.20;99.90;;;;;;5068560;28;20067;-80
2022/08/20 09:33:51;;;;;;;13.75;7.30;;;22.30;99.90;;;;;;5064462;28;20036;-81
2022/08/20 09:36:17;;;;;;;6.95;4.85;;;22.20;99.90;;;;;;5062980;28;20545;-82
2022/08/20 09:38:43;;;;;;;13.70;7.38;;;22.40;99.90;;;;;;5065694;28;20556;-82
2022/08/20 09:41:08;;;;;;;13.23;8.10;;;22.50;99.90;;;;;;5067151;28;20513;-83
2022/08/20 09:43:33;;;;;;;14.70;7.97;;;22.40;99.90;;;;;;5066215;28;20052;-82
2022/08/20 09:45:59;;;;;;;12.75;7.97;;;22.30;99.90;;;;;;5063341;28;20115;-79
2022/08/20 09:48:24;;;;;;;11.63;7.10;;;22.10;99.90;;;;;;5063474;28;20483;-80
2022/08/20 09:50:50;;;;;;;13.02;6.65;;;22.10;99.90;;;;;;5067043;28;20028;-77
2022/08/20 09:53:18;;;;;;;17.27;7.82;;;22.30;99.90;;;;;;5068931;28;20024;-77
2022/08/20 09:55:48;;;;;;;12.38;7.22;;;22.30;99.90;;;;;;5065637;28;20066;-84
2022/08/20 09:58:21;;;;;;;9.43;6.55;;;22.40;99.90;;;;;;5060649;28;20033;-86
2022/08/20 10:00:47;;;;;;;10.65;6.05;;;22.70;99.90;;;;;;5067093;28;20036;-84
2022/08/20 10:03:12;;;;;;;10.05;5.43;;;23.10;99.90;;;;;;5069069;28;20665;-82
2022/08/20 10:05:38;;;;;;;10.45;6.30;;;23.30;99.90;;;;;;5065850;28;20055;-88
2022/08/20 10:08:08;;;;;;;12.93;6.82;;;23.30;99.90;;;;;;5063135;28;20107;-81
2022/08/20 10:10:34;;;;;;;11.20;6.88;;;23.50;99.90;;;;;;5060743;28;20028;-78
2022/08/20 10:12:59;;;;;;;10.30;5.95;;;23.50;99.90;;;;;;5065994;28;20035;-85
2022/08/20 10:15:25;;;;;;;9.20;6.07;;;23.60;99.90;;;;;;5068534;28;20395;-90
2022/08/20 10:17:50;;;;;;;10.30;5.80;;;23.80;99.90;;;;;;5069148;28;20025;-87
2022/08/20 10:20:17;;;;;;;9.50;5.55;;;23.70;99.90;;;;;;5066461;28;20020;-88
2022/08/20 10:22:43;;;;;;;9.68;5.75;;;23.80;99.90;;;;;;5066940;28;20025;-85
2022/08/20 10:25:10;;;;;;;10.48;6.05;;;23.90;99.90;;;;;;5065646;28;20305;-85
2022/08/20 10:27:36;;;;;;;7.95;4.32;;;24.10;99.90;;;;;;5066779;28;20033;-89
2022/08/20 10:30:02;;;;;;;7.13;4.60;;;23.80;99.90;;;;;;5065555;28;20582;-81
2022/08/20 10:32:28;;;;;;;7.20;4.47;;;23.60;99.90;;;;;;5065751;28;20078;-90
2022/08/20 10:34:53;;;;;;;9.40;5.53;;;23.50;99.90;;;;;;5063666;28;20024;-84
2022/08/20 10:37:22;;;;;;;5.70;4.32;;;23.50;99.90;;;;;;5077799;28;20123;-84
2022/08/20 10:39:47;;;;;;;5.80;3.97;;;23.30;99.90;;;;;;5070128;28;20034;-86
2022/08/20 10:42:13;;;;;;;5.35;3.67;;;23.30;99.90;;;;;;5053561;28;20059;-83
2022/08/20 10:44:39;;;;;;;8.70;4.63;;;23.40;99.90;;;;;;5073224;28;20013;-86
2022/08/20 10:47:24;;;;;;;7.68;4.47;;;23.50;99.90;;;;;;5069201;28;20024;-79
2022/08/20 10:49:52;;;;;;;10.52;4.95;;;23.60;99.90;;;;;;5061749;28;20040;-84
2022/08/20 10:52:18;;;;;;;7.45;5.20;;;23.70;99.90;;;;;;5069598;28;20020;-82
2022/08/20 10:54:44;;;;;;;8.25;4.65;;;23.90;99.90;;;;;;5068237;28;20439;-77
2022/08/20 10:57:16;;;;;;;9.90;4.45;;;24.20;99.90;;;;;;5066674;28;20035;-78
2022/08/20 10:59:43;;;;;;;7.78;5.03;;;24.30;99.90;;;;;;5062519;28;20033;-88
2022/08/20 11:02:08;;;;;;;9.32;5.43;;;24.20;99.90;;;;;;5064367;28;20025;-84
2022/08/20 11:04:34;;;;;;;7.35;4.35;;;24.40;99.90;;;;;;5057230;28;20035;-74
2022/08/20 11:07:13;;;;;;;5.47;3.80;;;24.30;99.90;;;;;;5062093;28;20053;-76
2022/08/20 11:09:39;;;;;;;8.45;3.83;;;24.40;99.90;;;;;;5060762;28;20024;-75
2022/08/20 11:12:05;;;;;;;5.00;3.28;;;24.30;99.90;;;;;;5062848;28;20020;-76
2022/08/20 11:14:30;;;;;;;5.10;3.67;;;24.30;99.90;;;;;;5072287;28;20402;-77
2022/08/20 11:16:56;;;;;;;4.93;3.13;;;24.00;99.90;;;;;;5060706;28;20395;-76
2022/08/20 11:19:21;;;;;;;3.50;2.70;;;24.00;99.90;;;;;;5066764;28;20040;-86
2022/08/20 11:21:47;;;;;;;4.72;3.17;;;23.90;99.90;;;;;;5067063;28;20137;-85
2022/08/20 11:24:12;;;;;;;5.45;3.08;;;23.80;99.90;;;;;;5065033;28;20013;-84
2022/08/20 11:26:38;;;;;;;3.47;2.58;;;23.70;99.90;;;;;;5065385;28;20027;-84
2022/08/20 11:29:03;;;;;;;3.78;2.72;;;23.70;99.90;;;;;;5068836;28;20028;-86
2022/08/20 11:31:29;;;;;;;4.20;2.63;;;23.50;99.90;;;;;;5071682;28;20056;-82
2022/08/20 11:33:54;;;;;;;2.92;2.35;;;23.40;99.90;;;;;;5070064;28;20040;-84
2022/08/20 11:36:25;;;;;;;3.30;2.55;;;23.20;99.90;;;;;;5071746;28;20036;-86
2022/08/20 11:38:51;;;;;;;3.45;2.33;;;23.20;99.90;;;;;;5070713;28;20106;-84
2022/08/20 11:41:16;;;;;;;3.47;2.45;;;23.20;99.90;;;;;;5069117;28;20599;-85
2022/08/20 11:43:42;;;;;;;2.70;2.10;;;23.20;99.90;;;;;;5071310;28;20024;-85
2022/08/20 11:46:07;;;;;;;2.88;2.47;;;23.10;99.90;;;;;;5071614;28;20574;-83
2022/08/20 11:48:32;;;;;;;3.60;2.33;;;22.90;99.90;;;;;;5071481;28;20016;-82
2022/08/20 11:50:58;;;;;;;3.30;2.47;;;22.80;99.90;;;;;;5068682;28;20477;-85
2022/08/20 11:53:23;;;;;;;4.93;2.88;;;22.80;99.90;;;;;;5069541;28;20033;-82
2022/08/20 11:55:49;;;;;;;3.10;2.42;;;22.90;99.90;;;;;;5070332;28;20662;-84
2022/08/20 11:58:15;;;;;;;3.45;2.22;;;23.00;99.90;;;;;;5071325;28;20024;-85
2022/08/20 12:00:40;;;;;;;5.32;2.78;;;23.20;99.90;;;;;;5068915;28;20063;-85
2022/08/20 12:03:07;;;;;;;3.75;2.33;;;23.20;99.90;;;;;;5069550;28;20060;-84
2022/08/20 12:05:33;;;;;;;3.95;2.53;;;23.30;99.90;;;;;;5070584;28;20103;-86
2022/08/20 12:08:02;;;;;;;4.00;2.88;;;23.40;99.90;;;;;;5071334;28;20574;-87
2022/08/20 12:10:28;;;;;;;4.88;2.92;;;23.40;99.90;;;;;;5068746;28;20430;-85
2022/08/20 12:12:55;;;;;;;3.47;2.63;;;23.30;99.90;;;;;;5062895;28;20037;-77
2022/08/20 12:15:21;;;;;;;6.93;2.95;;;23.30;99.90;;;;;;5065900;28;20124;-76
2022/08/20 12:17:47;;;;;;;3.90;2.83;;;23.10;99.90;;;;;;5068371;28;20462;-78
2022/08/20 12:20:14;;;;;;;5.60;3.60;;;23.10;99.90;;;;;;5066994;28;20041;-79
2022/08/20 12:22:40;;;;;;;5.25;3.08;;;23.10;99.90;;;;;;5064262;28;20031;-75
2022/08/20 12:25:07;;;;;;;4.03;3.17;;;23.10;99.90;;;;;;5058150;28;20033;-76
2022/08/20 12:27:34;;;;;;;3.35;2.33;;;23.00;99.90;;;;;;5045585;28;20021;-81
2022/08/20 12:30:03;;;;;;;3.40;2.60;;;23.00;99.90;;;;;;5065263;28;20032;-79
2022/08/20 12:32:30;;;;;;;3.58;2.60;;;23.10;99.90;;;;;;5065020;28;20024;-77
2022/08/20 12:34:56;;;;;;;5.10;2.67;;;23.20;99.90;;;;;;5063733;28;20077;-76
2022/08/20 12:37:24;;;;;;;3.53;2.28;;;23.20;99.90;;;;;;5063501;28;20710;-79
2022/08/20 12:39:56;;;;;;;4.93;2.85;;;23.30;99.90;;;;;;5063264;28;20487;-81
2022/08/20 12:42:22;;;;;;;3.92;2.45;;;23.40;99.90;;;;;;5066474;28;20032;-77
2022/08/20 12:44:49;;;;;;;3.33;2.50;;;23.50;99.90;;;;;;5065603;28;20087;-74
2022/08/20 12:47:35;;;;;;;3.88;2.38;;;23.40;99.90;;;;;;5065046;28;20484;-75
2022/08/20 12:50:05;;;;;;;4.82;2.60;;;23.20;99.90;;;;;;5064588;28;20028;-80
2022/08/20 12:52:31;;;;;;;4.32;2.50;;;23.10;99.90;;;;;;5065188;28;20029;-79